sensor_id;sensor_type;location;lat;lon;timestamp;P1;durP1;ratioP1;P2;durP2;ratioP2
59416;SDS011;45222;52.458;20.914;2023-07-08T15:47:17;5.50;;;2.90;;
59416;SDS011;45222;52.458;20.914;2023-07-08T15:51:02;7.80;;;2.80;;
59416;SDS011;45222;52.458;20.914;2023-07-08T15:54:47;5.50;;;2.80;;
59416;SDS011;45222;52.458;20.914;2023-07-08T15:58:33;7.50;;;4.40;;
59416;SDS011;45222;52.458;20.914;2023-07-08T16:02:23;12.10;;;4.00;;
59416;SDS011;45222;52.458;20.914;2023-07-08T16:06:12;7.30;;;2.70;;
59416;SDS011;45222;52.458;20.914;2023-07-08T16:09:57;8.60;;;2.80;;
59416;SDS011;45222;52.458;20.914;2023-07-08T16:13:42;4.40;;;2.60;;
59416;SDS011;45222;52.458;20.914;2023-07-08T16:17:32;6.30;;;2.80;;
59416;SDS011;45222;52.458;20.914;2023-07-08T16:21:20;5.10;;;2.70;;
59416;SDS011;45222;52.458;20.914;2023-07-08T16:25:06;15.40;;;3.80;;
59416;SDS011;45222;52.458;20.914;2023-07-08T16:28:55;8.00;;;3.40;;
59416;SDS011;45222;52.458;20.914;2023-07-08T16:32:41;7.00;;;3.00;;
59416;SDS011;45222;52.458;20.914;2023-07-08T16:36:27;7.60;;;2.70;;
59416;SDS011;45222;52.458;20.914;2023-07-08T16:40:14;4.80;;;2.60;;
59416;SDS011;45222;52.458;20.914;2023-07-08T16:44:01;6.40;;;2.90;;
59416;SDS011;45222;52.458;20.914;2023-07-08T16:47:47;7.70;;;3.00;;
59416;SDS011;45222;52.458;20.914;2023-07-08T16:51:33;5.40;;;2.70;;
59416;SDS011;45222;52.458;20.914;2023-07-08T16:55:20;6.00;;;3.10;;
59416;SDS011;45222;52.458;20.914;2023-07-08T16:59:06;5.10;;;2.80;;
59416;SDS011;45222;52.458;20.914;2023-07-08T17:02:51;5.90;;;3.10;;
59416;SDS011;45222;52.458;20.914;2023-07-08T17:06:36;4.90;;;2.70;;
59416;SDS011;45222;52.458;20.914;2023-07-08T17:10:21;4.90;;;2.90;;
59416;SDS011;45222;52.458;20.914;2023-07-08T17:14:07;6.60;;;3.00;;
59416;SDS011;45222;52.458;20.914;2023-07-08T17:17:56;7.10;;;3.40;;
59416;SDS011;45222;52.458;20.914;2023-07-08T17:21:43;7.10;;;2.80;;
59416;SDS011;45222;52.458;20.914;2023-07-08T17:25:29;6.50;;;3.10;;
59416;SDS011;45222;52.458;20.914;2023-07-08T17:29:14;7.10;;;3.10;;
59416;SDS011;45222;52.458;20.914;2023-07-08T17:32:59;10.00;;;3.40;;
59416;SDS011;45222;52.458;20.914;2023-07-08T17:36:46;6.70;;;3.00;;
59416;SDS011;45222;52.458;20.914;2023-07-08T17:40:32;7.90;;;3.20;;
59416;SDS011;45222;52.458;20.914;2023-07-08T17:44:17;5.80;;;3.20;;
59416;SDS011;45222;52.458;20.914;2023-07-08T17:48:03;9.30;;;3.20;;
59416;SDS011;45222;52.458;20.914;2023-07-08T17:51:48;7.50;;;3.10;;
59416;SDS011;45222;52.458;20.914;2023-07-08T17:55:34;6.90;;;3.40;;
59416;SDS011;45222;52.458;20.914;2023-07-08T17:59:19;8.00;;;3.40;;
59416;SDS011;45222;52.458;20.914;2023-07-08T18:03:05;7.40;;;3.20;;
59416;SDS011;45222;52.458;20.914;2023-07-08T18:06:53;6.90;;;2.90;;
59416;SDS011;45222;52.458;20.914;2023-07-08T18:10:38;6.50;;;3.00;;
59416;SDS011;45222;52.458;20.914;2023-07-08T18:14:23;5.70;;;3.00;;
59416;SDS011;45222;52.458;20.914;2023-07-08T18:18:09;5.90;;;3.20;;
59416;SDS011;45222;52.458;20.914;2023-07-08T18:21:54;9.10;;;3.10;;
59416;SDS011;45222;52.458;20.914;2023-07-08T18:25:40;9.20;;;3.70;;
59416;SDS011;45222;52.458;20.914;2023-07-08T18:29:25;8.80;;;3.60;;
59416;SDS011;45222;52.458;20.914;2023-07-08T18:33:13;6.50;;;3.30;;
59416;SDS011;45222;52.458;20.914;2023-07-08T18:37:00;5.70;;;3.50;;
59416;SDS011;45222;52.458;20.914;2023-07-08T18:40:46;9.70;;;3.60;;
59416;SDS011;45222;52.458;20.914;2023-07-08T18:44:33;6.60;;;3.60;;
59416;SDS011;45222;52.458;20.914;2023-07-08T18:48:20;12.00;;;4.00;;
59416;SDS011;45222;52.458;20.914;2023-07-08T18:52:08;12.20;;;4.30;;
59416;SDS011;45222;52.458;20.914;2023-07-08T18:55:53;9.90;;;4.20;;
59416;SDS011;45222;52.458;20.914;2023-07-08T18:59:38;11.60;;;4.00;;
59416;SDS011;45222;52.458;20.914;2023-07-08T19:03:26;12.10;;;4.70;;
59416;SDS011;45222;52.458;20.914;2023-07-08T19:07:13;12.90;;;4.60;;
59416;SDS011;45222;52.458;20.914;2023-07-08T19:10:58;9.10;;;4.70;;
59416;SDS011;45222;52.458;20.914;2023-07-08T19:14:43;10.20;;;4.70;;
59416;SDS011;45222;52.458;20.914;2023-07-08T19:18:29;8.70;;;4.70;;
59416;SDS011;45222;52.458;20.914;2023-07-08T19:22:15;11.80;;;4.70;;
59416;SDS011;45222;52.458;20.914;2023-07-08T19:26:02;10.40;;;4.90;;
59416;SDS011;45222;52.458;20.914;2023-07-08T19:29:47;13.40;;;5.00;;
59416;SDS011;45222;52.458;20.914;2023-07-08T19:33:32;12.10;;;4.50;;
59416;SDS011;45222;52.458;20.914;2023-07-08T19:37:20;17.90;;;5.50;;
59416;SDS011;45222;52.458;20.914;2023-07-08T19:41:07;11.40;;;5.20;;
59416;SDS011;45222;52.458;20.914;2023-07-08T19:44:54;8.80;;;4.60;;
59416;SDS011;45222;52.458;20.914;2023-07-08T19:48:40;10.40;;;5.20;;
59416;SDS011;45222;52.458;20.914;2023-07-08T19:52:26;23.80;;;6.30;;
59416;SDS011;45222;52.458;20.914;2023-07-08T19:56:11;10.40;;;5.30;;
59416;SDS011;45222;52.458;20.914;2023-07-08T19:59:58;8.80;;;4.90;;
59416;SDS011;45222;52.458;20.914;2023-07-08T20:03:44;8.70;;;5.00;;
59416;SDS011;45222;52.458;20.914;2023-07-08T20:07:29;10.20;;;5.20;;
59416;SDS011;45222;52.458;20.914;2023-07-08T20:11:14;8.90;;;5.30;;
59416;SDS011;45222;52.458;20.914;2023-07-08T20:15:00;12.60;;;5.60;;
59416;SDS011;45222;52.458;20.914;2023-07-08T20:18:45;9.10;;;5.70;;
59416;SDS011;45222;52.458;20.914;2023-07-08T20:22:31;12.50;;;6.10;;
59416;SDS011;45222;52.458;20.914;2023-07-08T20:26:21;9.20;;;5.90;;
59416;SDS011;45222;52.458;20.914;2023-07-08T20:30:15;53.20;;;7.60;;
59416;SDS011;45222;52.458;20.914;2023-07-08T20:34:04;26.30;;;6.90;;
59416;SDS011;45222;52.458;20.914;2023-07-08T20:37:52;10.90;;;5.40;;
59416;SDS011;45222;52.458;20.914;2023-07-08T20:41:37;16.30;;;6.80;;
59416;SDS011;45222;52.458;20.914;2023-07-08T20:45:24;14.20;;;7.10;;
59416;SDS011;45222;52.458;20.914;2023-07-08T20:49:12;12.60;;;6.40;;
59416;SDS011;45222;52.458;20.914;2023-07-08T20:52:57;10.90;;;5.80;;
59416;SDS011;45222;52.458;20.914;2023-07-08T20:56:44;10.60;;;5.80;;
59416;SDS011;45222;52.458;20.914;2023-07-08T21:00:30;9.00;;;5.70;;
59416;SDS011;45222;52.458;20.914;2023-07-08T21:04:16;68.80;;;8.60;;
59416;SDS011;45222;52.458;20.914;2023-07-08T21:08:01;11.60;;;6.20;;
59416;SDS011;45222;52.458;20.914;2023-07-08T21:11:49;9.00;;;5.70;;
59416;SDS011;45222;52.458;20.914;2023-07-08T21:15:34;11.60;;;6.50;;
59416;SDS011;45222;52.458;20.914;2023-07-08T21:19:19;8.60;;;6.20;;
59416;SDS011;45222;52.458;20.914;2023-07-08T21:23:06;9.30;;;6.20;;
59416;SDS011;45222;52.458;20.914;2023-07-08T21:26:52;10.10;;;6.30;;
59416;SDS011;45222;52.458;20.914;2023-07-08T21:30:38;9.90;;;6.20;;
59416;SDS011;45222;52.458;20.914;2023-07-08T21:34:23;10.10;;;6.20;;
59416;SDS011;45222;52.458;20.914;2023-07-08T21:38:08;10.20;;;6.20;;
59416;SDS011;45222;52.458;20.914;2023-07-08T21:41:55;10.70;;;6.50;;
59416;SDS011;45222;52.458;20.914;2023-07-08T21:45:40;11.40;;;6.80;;
59416;SDS011;45222;52.458;20.914;2023-07-08T21:49:26;9.40;;;6.50;;
59416;SDS011;45222;52.458;20.914;2023-07-08T21:53:15;10.70;;;6.40;;
59416;SDS011;45222;52.458;20.914;2023-07-08T21:57:03;12.30;;;8.40;;
59416;SDS011;45222;52.458;20.914;2023-07-08T22:00:51;10.60;;;7.50;;
59416;SDS011;45222;52.458;20.914;2023-07-08T22:04:37;10.80;;;6.90;;
59416;SDS011;45222;52.458;20.914;2023-07-08T22:08:23;10.40;;;7.00;;
59416;SDS011;45222;52.458;20.914;2023-07-08T22:12:13;9.70;;;6.80;;
59416;SDS011;45222;52.458;20.914;2023-07-08T22:15:59;14.00;;;9.40;;
59416;SDS011;45222;52.458;20.914;2023-07-08T22:19:46;11.80;;;7.50;;
59416;SDS011;45222;52.458;20.914;2023-07-08T22:23:31;9.70;;;6.40;;
59416;SDS011;45222;52.458;20.914;2023-07-08T22:27:16;11.50;;;6.00;;
59416;SDS011;45222;52.458;20.914;2023-07-08T22:31:01;10.90;;;6.20;;
59416;SDS011;45222;52.458;20.914;2023-07-08T22:34:47;10.60;;;6.30;;
59416;SDS011;45222;52.458;20.914;2023-07-08T22:38:32;9.60;;;5.70;;
59416;SDS011;45222;52.458;20.914;2023-07-08T22:42:17;8.00;;;5.40;;
59416;SDS011;45222;52.458;20.914;2023-07-08T22:46:02;11.10;;;5.50;;
59416;SDS011;45222;52.458;20.914;2023-07-08T22:49:47;11.00;;;6.60;;
59416;SDS011;45222;52.458;20.914;2023-07-08T22:53:34;10.10;;;6.90;;
59416;SDS011;45222;52.458;20.914;2023-07-08T22:57:20;10.20;;;6.20;;
59416;SDS011;45222;52.458;20.914;2023-07-08T23:01:05;11.10;;;6.60;;
59416;SDS011;45222;52.458;20.914;2023-07-08T23:04:50;9.60;;;6.20;;
59416;SDS011;45222;52.458;20.914;2023-07-08T23:08:35;11.70;;;6.20;;
59416;SDS011;45222;52.458;20.914;2023-07-08T23:12:21;9.70;;;5.60;;
59416;SDS011;45222;52.458;20.914;2023-07-08T23:16:18;13.40;;;5.60;;
59416;SDS011;45222;52.458;20.914;2023-07-08T23:20:11;10.70;;;6.00;;
59416;SDS011;45222;52.458;20.914;2023-07-08T23:24:00;8.70;;;5.50;;
59416;SDS011;45222;52.458;20.914;2023-07-08T23:27:45;8.40;;;5.00;;
59416;SDS011;45222;52.458;20.914;2023-07-08T23:31:31;9.60;;;5.10;;
59416;SDS011;45222;52.458;20.914;2023-07-08T23:35:17;8.50;;;5.00;;
59416;SDS011;45222;52.458;20.914;2023-07-08T23:39:03;7.90;;;5.00;;
59416;SDS011;45222;52.458;20.914;2023-07-08T23:42:59;11.20;;;5.90;;
59416;SDS011;45222;52.458;20.914;2023-07-08T23:46:44;11.50;;;6.60;;
59416;SDS011;45222;52.458;20.914;2023-07-08T23:50:34;10.40;;;6.90;;
59416;SDS011;45222;52.458;20.914;2023-07-08T23:54:21;10.40;;;6.80;;
59416;SDS011;45222;52.458;20.914;2023-07-08T23:58:08;11.40;;;7.20;;
